Time;durP1;ratioP1;P1;durP2;ratioP2;P2;SDS_P1;SDS_P2;PMS_P1;PMS_P2;Temp;Humidity;BMP_temperature;BMP_pressure;BME280_temperature;BME280_humidity;BME280_pressure;Samples;Min_cycle;Max_cycle;Signal;HPM_P1;HPM_P2
2023/09/08 00:02:22;;;;;;;7.43;5.45;;;;;;;20.04;58.15;100709.50;10261047;28;20190;-78
2023/09/08 00:07:25;;;;;;;7.53;5.85;;;;;;;20.04;58.28;100706.78;10247272;28;20043;-78
2023/09/08 00:12:29;;;;;;;10.10;5.47;;;;;;;19.98;58.31;100710.22;10238358;28;20184;-77
2023/09/08 00:17:32;;;;;;;5.72;5.22;;;;;;;20.05;58.11;100705.75;10232283;28;21508;-77
2023/09/08 00:22:35;;;;;;;6.72;5.45;;;;;;;20.18;57.39;100701.59;10257151;28;20043;-77
2023/09/08 00:27:40;;;;;;;6.05;5.30;;;;;;;20.25;57.17;100700.69;10248946;28;20051;-77
2023/09/08 00:32:42;;;;;;;6.28;5.47;;;;;;;20.21;57.31;100703.94;10241267;28;20061;-78
2023/09/08 00:37:45;;;;;;;6.68;5.10;;;;;;;20.11;57.41;100698.75;10251797;28;20062;-78
2023/09/08 00:42:50;;;;;;;6.40;5.53;;;;;;;19.00;61.57;100700.44;10251284;28;20047;-78
2023/09/08 00:47:53;;;;;;;8.40;5.50;;;;;;;18.75;63.39;100701.44;10239300;28;20055;-78
2023/09/08 00:52:56;;;;;;;5.90;5.30;;;;;;;18.99;63.17;100698.75;10234946;28;21231;-78
2023/09/08 00:58:01;;;;;;;9.65;5.90;;;;;;;18.82;63.24;100697.06;10228408;28;20043;-77
2023/09/08 01:03:04;;;;;;;7.28;6.45;;;;;;;18.46;64.57;100707.41;10234890;28;20058;-78
2023/09/08 01:08:08;;;;;;;13.20;7.75;;;;;;;18.27;65.38;100703.97;10233923;28;20066;-78
2023/09/08 01:13:12;;;;;;;9.90;6.38;;;;;;;18.43;65.37;100705.88;10232875;28;20062;-78
2023/09/08 01:18:15;;;;;;;7.57;6.05;;;;;;;18.66;64.77;100707.91;10231748;28;20532;-78
2023/09/08 01:23:22;;;;;;;7.70;6.18;;;;;;;18.80;63.93;100704.53;10230706;28;20058;-78
2023/09/08 01:28:27;;;;;;;8.38;5.85;;;;;;;18.76;62.88;100700.44;10243934;28;20101;-77
2023/09/08 01:33:31;;;;;;;10.02;6.75;;;;;;;18.51;63.85;100703.16;10224992;28;21609;-77
2023/09/08 01:38:34;;;;;;;10.55;6.38;;;;;;;18.50;64.26;100703.31;10215365;28;20081;-77
2023/09/08 01:43:38;;;;;;;7.65;5.95;;;;;;;18.69;63.77;100702.13;10231752;28;20169;-78
2023/09/08 01:48:42;;;;;;;10.55;6.70;;;;;;;18.79;62.94;100691.97;10227889;28;20120;-77
2023/09/08 01:53:45;;;;;;;6.78;6.07;;;;;;;18.66;62.78;100706.03;10218440;28;20091;-77
2023/09/08 01:58:49;;;;;;;7.28;6.57;;;;;;;18.85;62.53;100698.59;10233422;28;20058;-77
2023/09/08 02:03:52;;;;;;;7.93;6.35;;;;;;;18.92;62.01;100699.59;10229196;28;20050;-77
2023/09/08 02:08:55;;;;;;;32.75;7.40;;;;;;;18.91;61.71;100697.91;10228245;28;20412;-77
2023/09/08 02:13:59;;;;;;;7.00;6.30;;;;;;;18.90;61.92;100693.50;10246008;28;20187;-77
2023/09/08 02:19:02;;;;;;;7.93;6.38;;;;;;;18.82;61.98;100698.94;10228093;28;20054;-77
2023/09/08 02:24:06;;;;;;;7.07;6.38;;;;;;;18.68;62.04;100700.44;10231798;28;20054;-77
2023/09/08 02:29:10;;;;;;;7.22;6.53;;;;;;;18.55;62.76;100695.50;10220484;28;20604;-77
2023/09/08 02:34:13;;;;;;;10.40;6.63;;;;;;;18.55;63.05;100698.22;10249226;28;20146;-77
2023/09/08 02:39:16;;;;;;;7.97;6.68;;;;;;;18.51;63.06;100694.13;10243853;28;20053;-77
2023/09/08 02:44:23;;;;;;;9.82;6.65;;;;;;;18.42;63.27;100693.28;10244873;28;20039;-77
2023/09/08 02:49:27;;;;;;;13.95;7.80;;;;;;;18.43;63.08;100695.00;10220343;28;20133;-77
2023/09/08 02:54:30;;;;;;;11.93;7.53;;;;;;;18.34;63.18;100690.53;10230712;28;20046;-77
2023/09/08 02:59:34;;;;;;;10.32;6.90;;;;;;;18.30;63.12;100691.91;10241594;28;20082;-77
2023/09/08 03:04:37;;;;;;;9.45;7.82;;;;;;;18.26;62.99;100691.38;10223421;28;20054;-77
2023/09/08 03:09:40;;;;;;;7.85;6.95;;;;;;;18.28;63.09;100694.78;10236611;28;20050;-77
2023/09/08 03:14:45;;;;;;;12.75;7.05;;;;;;;18.28;62.84;100696.66;10225631;28;20067;-78
2023/09/08 03:19:48;;;;;;;9.20;8.27;;;;;;;18.17;62.85;100686.94;10228721;28;20043;-77
2023/09/08 03:24:51;;;;;;;8.70;7.05;;;;;;;18.06;63.01;100690.81;10249312;28;20051;-77
2023/09/08 03:29:55;;;;;;;9.60;7.57;;;;;;;17.88;63.74;100679.19;10227127;28;20086;-77
2023/09/08 03:34:58;;;;;;;11.40;7.78;;;;;;;17.93;63.76;100680.38;10237620;28;20065;-77
2023/09/08 03:40:06;;;;;;;10.32;7.22;;;;;;;17.97;63.18;100677.38;10233582;28;20062;-77
2023/09/08 03:45:11;;;;;;;9.80;7.22;;;;;;;18.00;63.08;100668.91;10225478;28;21154;-77
2023/09/08 03:50:14;;;;;;;8.43;6.82;;;;;;;17.92;63.11;100675.13;10236154;28;20059;-76
2023/09/08 03:55:17;;;;;;;9.00;7.30;;;;;;;17.88;63.50;100687.31;10251122;28;20055;-76
2023/09/08 04:00:22;;;;;;;7.97;7.03;;;;;;;17.78;63.83;100675.78;10246227;28;20067;-77
2023/09/08 04:05:25;;;;;;;8.75;7.20;;;;;;;17.73;63.75;100676.25;10223836;28;20058;-77
2023/09/08 04:10:28;;;;;;;8.27;7.03;;;;;;;17.65;64.24;100670.78;10246419;28;20066;-78
2023/09/08 04:15:33;;;;;;;8.65;7.70;;;;;;;17.53;64.35;100675.66;10254999;28;20133;-78
2023/09/08 04:20:36;;;;;;;9.20;8.00;;;;;;;17.47;64.57;100665.47;10235162;28;20186;-78
2023/09/08 04:25:39;;;;;;;9.30;7.72;;;;;;;17.44;64.48;100663.91;10235481;28;20051;-78
2023/09/08 04:30:43;;;;;;;9.82;7.60;;;;;;;17.50;64.54;100673.28;10222598;28;20047;-78
2023/09/08 04:35:46;;;;;;;8.10;7.00;;;;;;;17.37;64.88;100678.31;10227582;28;20039;-77
2023/09/08 04:40:49;;;;;;;8.30;7.47;;;;;;;17.44;64.51;100673.91;10234136;28;20536;-78
2023/09/08 04:45:54;;;;;;;8.35;7.55;;;;;;;17.47;64.49;100671.75;10228210;28;20560;-78
2023/09/08 04:50:57;;;;;;;11.38;7.82;;;;;;;17.47;64.53;100674.47;10233709;28;20133;-78
2023/09/08 04:56:00;;;;;;;8.73;7.72;;;;;;;17.45;64.28;100673.75;10242727;28;20050;-78
2023/09/08 05:01:07;;;;;;;8.23;7.30;;;;;;;17.53;64.43;100669.41;10243006;28;20050;-78
2023/09/08 05:06:10;;;;;;;10.70;7.28;;;;;;;17.54;64.16;100677.34;10232818;28;20069;-78
2023/09/08 05:11:13;;;;;;;11.60;7.50;;;;;;;17.56;64.40;100671.78;10231359;28;20529;-78
2023/09/08 05:16:25;;;;;;;11.52;7.88;;;;;;;17.48;64.29;100681.59;10221762;28;20040;-78
2023/09/08 05:21:29;;;;;;;12.85;7.25;;;;;;;17.61;64.30;100670.28;10248879;28;20635;-78
2023/09/08 05:26:32;;;;;;;10.40;7.80;;;;;;;18.14;65.51;100677.25;10245177;28;20054;-78
2023/09/08 05:31:36;;;;;;;7.47;6.72;;;;;;;18.47;63.21;100681.88;10234929;28;20054;-78
2023/09/08 05:36:40;;;;;;;8.77;6.93;;;;;;;18.49;62.47;100686.16;10242480;28;20692;-79
2023/09/08 05:41:44;;;;;;;9.88;6.22;;;;;;;18.49;62.28;100674.41;10225339;28;20047;-78
2023/09/08 05:46:48;;;;;;;7.20;6.50;;;;;;;18.57;61.95;100672.56;10229451;28;20043;-78
2023/09/08 05:51:51;;;;;;;6.70;6.00;;;;;;;18.77;61.73;100669.47;10228387;28;20046;-78
2023/09/08 05:56:55;;;;;;;8.63;7.05;;;;;;;18.76;61.72;100673.22;10241685;28;20522;-78
2023/09/08 06:01:59;;;;;;;7.15;6.45;;;;;;;18.60;62.27;100675.97;10236160;28;20055;-78
2023/09/08 06:07:02;;;;;;;10.57;6.88;;;;;;;18.74;62.35;100673.41;10229698;28;20058;-78
2023/09/08 06:12:07;;;;;;;7.95;6.97;;;;;;;18.92;61.62;100675.94;10227020;28;20059;-78
2023/09/08 06:17:12;;;;;;;9.75;7.20;;;;;;;19.03;61.38;100669.28;10238913;28;20113;-78
2023/09/08 06:22:15;;;;;;;9.02;6.47;;;;;;;19.15;61.67;100665.19;10261103;28;20078;-78
2023/09/08 06:27:19;;;;;;;9.55;6.68;;;;;;;19.28;61.56;100667.41;10227365;28;20403;-78
2023/09/08 06:32:23;;;;;;;8.98;6.70;;;;;;;19.48;61.12;100667.81;10232755;28;20062;-80
2023/09/08 06:37:26;;;;;;;15.43;7.00;;;;;;;19.81;60.52;100670.44;10240881;28;20059;-79
2023/09/08 06:42:30;;;;;;;10.32;6.72;;;;;;;19.90;59.90;100658.47;10235726;28;20085;-78
2023/09/08 06:47:44;;;;;;;8.80;6.50;;;;;;;19.84;59.67;100665.47;10254817;28;20172;-78
2023/09/08 06:52:48;;;;;;;9.27;6.20;;;;;;;20.24;59.08;100665.41;10248866;28;20055;-80
2023/09/08 06:57:51;;;;;;;9.40;6.38;;;;;;;20.66;58.27;100666.84;10253210;28;20046;-78
2023/09/08 07:02:56;;;;;;;8.13;6.55;;;;;;;21.01;57.21;100678.97;10240031;28;20047;-79
2023/09/08 07:07:59;;;;;;;7.25;5.50;;;;;;;21.26;56.07;100667.81;10235146;28;20058;-78
2023/09/08 07:13:03;;;;;;;8.80;5.90;;;;;;;21.09;56.66;100673.47;10235053;28;20074;-79
2023/09/08 07:18:07;;;;;;;6.95;5.50;;;;;;;21.64;55.36;100672.13;10235366;28;20047;-79
2023/09/08 07:23:11;;;;;;;15.30;6.13;;;;;;;21.85;55.25;100670.53;10227033;28;20059;-78
2023/09/08 07:28:14;;;;;;;13.05;5.88;;;;;;;22.09;54.67;100672.06;10222542;28;20086;-77
2023/09/08 07:33:19;;;;;;;9.30;5.95;;;;;;;22.08;54.40;100673.13;10222656;28;20051;-77
2023/09/08 07:38:24;;;;;;;9.30;6.10;;;;;;;22.67;53.56;100666.56;10225984;28;20647;-77
2023/09/08 07:43:27;;;;;;;6.78;5.10;;;;;;;22.60;52.64;100672.00;10241848;28;20465;-77
2023/09/08 07:48:31;;;;;;;6.22;5.55;;;;;;;22.76;52.93;100666.25;10219606;28;20137;-77
2023/09/08 07:53:35;;;;;;;9.90;5.93;;;;;;;23.35;51.97;100664.16;10223524;28;20126;-77
2023/09/08 07:58:39;;;;;;;8.48;5.70;;;;;;;23.63;50.63;100669.56;10228566;28;20082;-77
2023/09/08 08:03:43;;;;;;;10.88;5.32;;;;;;;24.02;49.98;100665.31;10230014;28;20122;-78
2023/09/08 08:08:46;;;;;;;9.25;6.28;;;;;;;23.93;49.84;100670.16;10236821;28;20072;-76
2023/09/08 08:13:49;;;;;;;9.35;5.63;;;;;;;23.88;49.79;100670.75;10237136;28;20105;-77
2023/09/08 08:18:53;;;;;;;6.22;5.30;;;;;;;24.04;50.04;100674.19;10230808;28;20050;-77
2023/09/08 08:23:57;;;;;;;6.40;5.40;;;;;;;24.60;49.11;100670.31;10232811;28;21318;-77
2023/09/08 08:28:59;;;;;;;7.70;5.43;;;;;;;25.12;48.14;100668.63;10225997;28;20083;-77
2023/09/08 08:34:04;;;;;;;9.77;5.22;;;;;;;25.48;46.87;100668.16;10214716;28;20047;-77
2023/09/08 08:39:07;;;;;;;7.22;5.18;;;;;;;25.82;47.11;100671.66;10229864;28;20055;-77
2023/09/08 08:44:10;;;;;;;8.52;4.88;;;;;;;25.76;47.56;100670.63;10221317;28;20043;-77
2023/09/08 08:49:16;;;;;;;5.72;4.95;;;;;;;25.96;46.21;100661.41;10227847;28;20101;-77
2023/09/08 08:54:20;;;;;;;6.70;4.97;;;;;;;26.24;46.91;100667.41;10222575;28;21505;-78
2023/09/08 08:59:23;;;;;;;9.38;5.03;;;;;;;26.72;46.20;100664.13;10220972;28;20046;-77
2023/09/08 09:04:28;;;;;;;6.60;4.68;;;;;;;27.01;45.07;100660.91;10224832;28;20062;-77
2023/09/08 09:09:31;;;;;;;5.88;4.82;;;;;;;27.09;44.80;100664.22;10225437;28;20047;-77
2023/09/08 09:14:35;;;;;;;6.25;5.18;;;;;;;27.67;44.85;100659.38;10224238;28;20070;-78
2023/09/08 09:19:39;;;;;;;6.63;4.93;;;;;;;27.54;44.11;100660.41;10220632;28;20051;-77
2023/09/08 09:24:43;;;;;;;6.25;4.85;;;;;;;27.56;45.08;100652.72;10222992;28;20421;-77
2023/09/08 09:29:48;;;;;;;7.35;5.22;;;;;;;28.30;44.22;100656.19;10228380;28;20526;-77
2023/09/08 09:34:54;;;;;;;7.00;5.15;;;;;;;28.45;42.79;100656.63;10224807;28;20074;-76
2023/09/08 09:39:57;;;;;;;5.90;4.75;;;;;;;28.66;42.73;100641.44;10219693;28;20078;-77
2023/09/08 09:45:02;;;;;;;8.98;5.13;;;;;;;28.98;42.91;100632.78;10217416;28;20066;-77
2023/09/08 09:50:08;;;;;;;8.38;5.30;;;;;;;28.85;41.86;100635.78;10221477;28;20055;-76
2023/09/08 09:55:11;;;;;;;7.72;5.10;;;;;;;29.18;42.30;100626.91;10238011;28;20442;-77
2023/09/08 10:00:16;;;;;;;7.45;5.10;;;;;;;29.52;41.72;100622.41;10219286;28;20499;-77
2023/09/08 10:05:20;;;;;;;7.03;4.55;;;;;;;29.97;41.42;100626.34;10228141;28;20043;-77
2023/09/08 10:10:27;;;;;;;5.93;4.70;;;;;;;30.03;41.46;100625.34;10236065;28;20047;-76
2023/09/08 10:15:32;;;;;;;7.28;5.00;;;;;;;30.20;39.86;100626.28;10221071;28;20150;-76
2023/09/08 10:20:38;;;;;;;5.65;5.15;;;;;;;30.83;39.30;100615.16;10214666;28;20178;-77
2023/09/08 10:25:45;;;;;;;9.73;5.00;;;;;;;30.77;39.46;100611.44;10216880;28;20051;-76
2023/09/08 10:30:49;;;;;;;5.80;4.88;;;;;;;30.98;39.33;100606.22;10226635;28;20498;-76
2023/09/08 10:35:54;;;;;;;5.22;4.72;;;;;;;30.79;38.90;100608.44;10213000;28;20062;-76
2023/09/08 10:41:32;;;;;;;10.13;4.93;;;;;;;31.27;38.52;100605.00;10208431;28;21439;-77
2023/09/08 10:46:35;;;;;;;5.28;4.55;;;;;;;31.40;38.84;100606.53;10208845;28;20055;-77
2023/09/08 10:51:40;;;;;;;8.05;4.47;;;;;;;32.44;36.95;100608.25;10225454;28;20065;-77
2023/09/08 10:56:55;;;;;;;6.00;4.55;;;;;;;32.59;36.50;100604.78;10227659;28;20047;-77
2023/09/08 11:01:58;;;;;;;4.50;3.67;;;;;;;33.89;34.57;100589.31;10250411;28;20055;-77
2023/09/08 11:07:03;;;;;;;5.97;4.40;;;;;;;35.06;32.29;100596.91;10228890;28;20055;-78
2023/09/08 11:12:08;;;;;;;6.68;4.50;;;;;;;34.56;32.72;100595.03;10244941;28;20081;-78
2023/09/08 11:17:11;;;;;;;8.27;4.35;;;;;;;34.33;32.66;100604.75;10235007;28;20050;-77
2023/09/08 11:22:16;;;;;;;6.70;3.90;;;;;;;34.62;34.13;100591.94;10256502;28;20122;-77
2023/09/08 11:27:21;;;;;;;6.50;3.95;;;;;;;34.78;32.81;100591.94;10240279;28;20070;-77
2023/09/08 11:32:24;;;;;;;7.30;4.47;;;;;;;34.99;32.63;100595.47;10252993;28;20051;-77
2023/09/08 11:37:29;;;;;;;6.60;4.05;;;;;;;35.45;32.53;100575.81;10256706;28;20057;-77
2023/09/08 11:42:32;;;;;;;5.03;4.25;;;;;;;35.34;31.88;100588.16;10241298;28;20047;-77
2023/09/08 11:47:35;;;;;;;4.60;4.20;;;;;;;35.98;31.49;100572.47;10242055;28;20054;-77
2023/09/08 11:52:40;;;;;;;5.82;3.90;;;;;;;35.77;31.55;100566.19;10251226;28;20133;-77
2023/09/08 11:57:46;;;;;;;4.80;3.55;;;;;;;36.09;31.65;100560.09;10253730;28;20051;-77
2023/09/08 12:02:49;;;;;;;4.60;3.90;;;;;;;35.88;30.57;100563.00;10246589;28;20054;-77
2023/09/08 12:07:56;;;;;;;4.80;3.97;;;;;;;35.66;30.86;100552.25;10249079;28;20046;-77
2023/09/08 12:13:00;;;;;;;3.97;3.67;;;;;;;35.44;31.58;100554.59;10249537;28;20054;-77
2023/09/08 12:18:05;;;;;;;4.43;3.95;;;;;;;35.23;31.45;100546.31;10238280;28;20055;-77
2023/09/08 12:23:17;;;;;;;4.78;4.03;;;;;;;34.93;32.18;100543.59;10242771;28;21294;-77
2023/09/08 12:28:22;;;;;;;5.40;3.33;;;;;;;35.74;32.09;100540.47;10242350;28;20054;-77
2023/09/08 12:33:27;;;;;;;4.28;3.92;;;;;;;35.67;31.29;100534.38;10249849;28;20244;-77
2023/09/08 12:38:33;;;;;;;4.30;3.90;;;;;;;36.00;30.00;100534.72;10247453;28;20603;-77
2023/09/08 12:43:36;;;;;;;5.55;4.05;;;;;;;36.92;29.64;100535.81;10247422;28;20054;-78
2023/09/08 12:48:39;;;;;;;4.25;3.85;;;;;;;36.78;29.30;100532.88;10241854;28;20054;-77
2023/09/08 12:53:43;;;;;;;4.93;3.75;;;;;;;36.69;29.81;100538.31;10259587;28;20055;-77
2023/09/08 12:58:46;;;;;;;4.25;3.58;;;;;;;36.49;29.88;100525.38;10253782;28;20047;-78
2023/09/08 13:03:49;;;;;;;5.65;3.75;;;;;;;37.19;29.92;100524.88;10230055;28;20051;-77
2023/09/08 13:08:54;;;;;;;5.32;3.55;;;;;;;36.91;29.46;100517.38;10240451;28;20133;-77
2023/09/08 13:13:57;;;;;;;4.80;4.05;;;;;;;36.40;30.53;100515.97;10238020;28;20066;-77
2023/09/08 13:19:01;;;;;;;4.03;3.70;;;;;;;36.53;29.42;100511.63;10230563;28;20050;-78
2023/09/08 13:24:10;;;;;;;5.72;3.90;;;;;;;36.21;29.66;100512.19;10251290;28;20155;-77
2023/09/08 13:29:13;;;;;;;4.40;4.00;;;;;;;36.67;29.39;100506.16;10234095;28;20100;-77
2023/09/08 13:34:16;;;;;;;5.53;4.10;;;;;;;36.29;29.55;100495.63;10224532;28;21211;-77
2023/09/08 13:39:21;;;;;;;6.15;3.72;;;;;;;35.91;30.41;100495.41;10230849;28;20070;-76
2023/09/08 13:44:25;;;;;;;8.88;4.22;;;;;;;35.64;30.31;100478.25;10233959;28;20053;-76
2023/09/08 13:49:28;;;;;;;5.88;3.85;;;;;;;35.88;30.36;100483.94;10231679;28;20126;-77
2023/09/08 13:54:34;;;;;;;4.80;4.28;;;;;;;35.79;30.38;100486.50;10231887;28;20051;-77
2023/09/08 13:59:42;;;;;;;4.60;3.70;;;;;;;35.28;30.63;100472.88;10232950;28;20043;-77
2023/09/08 14:04:45;;;;;;;6.22;4.00;;;;;;;35.91;29.64;100480.56;10248432;28;20059;-77
2023/09/08 14:09:52;;;;;;;5.22;3.70;;;;;;;35.99;29.88;100479.13;10237349;28;20058;-77
2023/09/08 14:15:08;;;;;;;8.18;3.40;;;;;;;35.70;30.34;100472.31;10235095;28;20144;-77
2023/09/08 14:20:12;;;;;;;5.22;3.80;;;;;;;35.11;30.59;100461.22;10229166;28;20047;-77
2023/09/08 14:25:16;;;;;;;7.57;4.00;;;;;;;35.25;30.87;100468.69;10223151;28;20055;-77
2023/09/08 14:30:19;;;;;;;6.43;4.10;;;;;;;35.58;30.68;100468.25;10224311;28;20058;-77
2023/09/08 14:35:22;;;;;;;5.28;3.50;;;;;;;35.72;30.06;100467.28;10231688;28;20054;-77
2023/09/08 14:40:26;;;;;;;4.07;3.78;;;;;;;35.23;30.77;100462.56;10226129;28;20062;-77
2023/09/08 14:45:29;;;;;;;4.57;3.97;;;;;;;35.17;31.56;100462.88;10226605;28;20047;-77
2023/09/08 14:50:32;;;;;;;4.60;4.20;;;;;;;35.21;31.38;100467.59;10221160;28;20053;-76
2023/09/08 14:55:37;;;;;;;5.72;4.10;;;;;;;35.24;31.42;100466.19;10230596;28;20061;-78
2023/09/08 15:00:40;;;;;;;5.85;4.20;;;;;;;34.96;31.70;100464.91;10224992;28;20411;-78
2023/09/08 15:05:43;;;;;;;4.75;4.35;;;;;;;34.39;32.32;100459.50;10241489;28;20885;-77
2023/09/08 15:10:48;;;;;;;4.65;4.13;;;;;;;34.52;32.77;100460.03;10237151;28;21128;-77
2023/09/08 15:15:51;;;;;;;8.10;4.10;;;;;;;34.46;32.29;100458.38;10237076;28;20057;-77
2023/09/08 15:20:54;;;;;;;4.95;4.38;;;;;;;34.29;32.21;100453.13;10244760;28;20403;-77
2023/09/08 15:25:59;;;;;;;5.25;4.53;;;;;;;34.21;32.95;100440.56;10233987;28;20043;-77
2023/09/08 15:31:02;;;;;;;5.13;4.65;;;;;;;34.03;33.44;100447.53;10237735;28;20538;-77
2023/09/08 15:36:06;;;;;;;4.90;4.45;;;;;;;33.82;33.57;100435.56;10231140;28;20050;-77
2023/09/08 15:41:18;;;;;;;4.70;3.92;;;;;;;33.54;34.17;100439.69;10239112;28;20043;-76
2023/09/08 15:46:21;;;;;;;5.47;4.55;;;;;;;33.57;33.78;100433.59;10237256;28;20086;-77
2023/09/08 15:51:23;;;;;;;9.02;4.00;;;;;;;33.18;34.94;100428.50;10227833;28;20046;-77
2023/09/08 15:56:28;;;;;;;5.32;4.20;;;;;;;33.24;34.84;100440.47;10232174;28;20100;-77
2023/09/08 16:01:31;;;;;;;4.85;4.45;;;;;;;32.94;34.84;100439.25;10238209;28;20042;-77
2023/09/08 16:06:34;;;;;;;6.45;4.80;;;;;;;32.87;35.14;100439.50;10234763;28;20054;-77
2023/09/08 16:11:38;;;;;;;4.30;3.90;;;;;;;32.89;35.41;100431.72;10233578;28;20053;-76
2023/09/08 16:16:41;;;;;;;6.50;4.50;;;;;;;32.85;35.70;100433.34;10240720;28;20831;-77
2023/09/08 16:21:44;;;;;;;17.48;15.57;;;;;;;32.44;35.82;100430.34;10234343;28;21251;-76
2023/09/08 16:26:48;;;;;;;18.92;17.02;;;;;;;32.39;36.38;100437.81;10237270;28;20047;-77
2023/09/08 16:31:51;;;;;;;16.52;15.05;;;;;;;32.32;36.46;100438.06;10237816;28;20506;-76
2023/09/08 16:36:54;;;;;;;14.68;8.60;;;;;;;31.92;36.26;100422.75;10235172;28;20136;-77
2023/09/08 16:41:58;;;;;;;5.45;4.63;;;;;;;31.78;37.51;100432.63;10240955;28;20522;-76
2023/09/08 16:47:01;;;;;;;4.60;4.20;;;;;;;31.60;37.30;100424.69;10241387;28;20066;-77
2023/09/08 16:52:05;;;;;;;6.85;4.32;;;;;;;31.28;38.06;100433.81;10234427;28;20395;-77
2023/09/08 16:57:09;;;;;;;6.80;4.30;;;;;;;30.75;38.42;100440.94;10230548;28;20066;-77
2023/09/08 17:02:12;;;;;;;6.32;5.28;;;;;;;30.53;39.38;100436.19;10234039;28;20507;-76
2023/09/08 17:07:15;;;;;;;7.95;4.95;;;;;;;30.41;39.03;100439.03;10228562;28;20051;-76
2023/09/08 17:12:19;;;;;;;6.63;4.43;;;;;;;30.19;39.44;100435.38;10226147;28;20070;-77
2023/09/08 17:17:23;;;;;;;8.13;4.72;;;;;;;29.91;40.39;100425.22;10226223;28;20058;-76
2023/09/08 17:22:26;;;;;;;8.57;4.38;;;;;;;29.47;40.66;100431.38;10228148;28;20055;-77
2023/09/08 17:27:30;;;;;;;6.10;4.70;;;;;;;29.18;41.39;100438.84;10238254;28;20051;-78
2023/09/08 17:32:33;;;;;;;4.80;4.00;;;;;;;28.97;42.21;100439.50;10248763;28;20087;-77
2023/09/08 17:37:37;;;;;;;5.95;4.53;;;;;;;28.62;42.56;100435.72;10250256;28;20046;-77
2023/09/08 17:42:42;;;;;;;5.70;4.50;;;;;;;28.29;43.31;100441.88;10240006;28;20069;-77
2023/09/08 17:47:44;;;;;;;8.77;5.03;;;;;;;28.10;43.88;100435.63;10244770;28;20051;-78
2023/09/08 17:52:47;;;;;;;8.23;5.07;;;;;;;27.89;44.46;100442.50;10242139;28;20054;-77
2023/09/08 17:57:52;;;;;;;17.23;8.60;;;;;;;27.65;44.89;100446.34;10257878;28;20050;-76
2023/09/08 18:02:55;;;;;;;10.90;6.60;;;;;;;27.48;45.52;100449.78;10227427;28;20050;-77
2023/09/08 18:07:58;;;;;;;15.18;6.75;;;;;;;27.31;45.90;100451.44;10224753;28;20055;-77
2023/09/08 18:13:02;;;;;;;10.88;5.65;;;;;;;27.12;46.50;100457.00;10240349;28;20054;-77
2023/09/08 18:18:06;;;;;;;9.45;6.25;;;;;;;26.94;46.94;100462.56;10255141;28;20074;-78
2023/09/08 18:23:09;;;;;;;9.93;5.65;;;;;;;26.73;46.91;100472.94;10233162;28;20043;-79
2023/09/08 18:28:17;;;;;;;7.78;5.05;;;;;;;26.65;47.11;100467.72;10252160;28;20050;-79
2023/09/08 18:33:20;;;;;;;7.03;5.20;;;;;;;26.54;47.18;100465.72;10275259;28;20046;-77
2023/09/08 18:38:23;;;;;;;8.25;5.72;;;;;;;26.43;47.38;100469.22;10237629;28;20086;-78
2023/09/08 18:43:27;;;;;;;9.15;5.72;;;;;;;26.27;47.82;100468.78;10242027;28;20050;-78
2023/09/08 18:48:30;;;;;;;10.63;6.53;;;;;;;26.22;48.06;100473.19;10236741;28;20675;-78
2023/09/08 18:53:34;;;;;;;8.65;5.97;;;;;;;26.15;47.78;100472.44;10240033;28;20098;-78
2023/09/08 18:58:39;;;;;;;7.82;5.75;;;;;;;26.01;47.65;100477.22;10239076;28;20130;-78
2023/09/08 19:03:42;;;;;;;8.02;6.00;;;;;;;25.81;48.30;100467.22;10243883;28;20157;-78
2023/09/08 19:08:45;;;;;;;6.25;5.00;;;;;;;25.73;48.55;100463.91;10235107;28;20051;-78
2023/09/08 19:13:49;;;;;;;10.38;6.43;;;;;;;25.62;49.01;100476.41;10234737;28;20052;-77
2023/09/08 19:18:52;;;;;;;5.68;5.18;;;;;;;25.46;49.74;100476.94;10233323;28;20066;-78
2023/09/08 19:23:55;;;;;;;8.15;5.45;;;;;;;25.29;50.29;100480.22;10247813;28;21299;-78
2023/09/08 19:28:59;;;;;;;8.70;5.72;;;;;;;25.20;50.75;100473.25;10230099;28;20054;-77
2023/09/08 19:34:04;;;;;;;7.78;5.80;;;;;;;25.12;51.09;100471.63;10226337;28;20427;-77
2023/09/08 19:39:08;;;;;;;8.55;5.55;;;;;;;25.09;51.28;100472.03;10241425;28;20742;-78
2023/09/08 19:44:13;;;;;;;12.90;5.78;;;;;;;25.02;51.63;100475.88;10228350;28;20102;-77
2023/09/08 19:49:16;;;;;;;8.60;5.53;;;;;;;24.81;51.97;100469.59;10229543;28;20053;-76
2023/09/08 19:54:19;;;;;;;10.63;6.45;;;;;;;24.69;52.60;100468.59;10235293;28;20050;-77
2023/09/08 19:59:24;;;;;;;9.65;6.07;;;;;;;24.69;52.67;100463.09;10234972;28;20430;-77
2023/09/08 20:04:27;;;;;;;7.95;6.78;;;;;;;24.48;53.40;100465.03;10233961;28;20116;-77
2023/09/08 20:09:30;;;;;;;7.72;6.95;;;;;;;24.31;53.89;100464.59;10248026;28;20043;-78
2023/09/08 20:14:35;;;;;;;9.73;7.03;;;;;;;24.24;53.94;100458.25;10239374;28;20057;-78
2023/09/08 20:19:38;;;;;;;7.38;6.60;;;;;;;24.05;54.77;100465.47;10249134;28;20047;-77
2023/09/08 20:24:41;;;;;;;9.52;7.07;;;;;;;24.14;54.69;100465.25;10248308;28;20066;-77
2023/09/08 20:29:47;;;;;;;11.02;7.10;;;;;;;24.10;54.53;100462.91;10230389;28;20418;-77
2023/09/08 20:34:50;;;;;;;12.57;7.65;;;;;;;23.96;54.62;100454.91;10236737;28;20662;-77
2023/09/08 20:39:53;;;;;;;8.50;6.95;;;;;;;23.75;55.57;100459.53;10229446;28;20062;-77
2023/09/08 20:44:57;;;;;;;10.52;6.85;;;;;;;23.58;56.13;100461.81;10230748;28;20055;-78
2023/09/08 20:50:00;;;;;;;10.23;7.13;;;;;;;23.48;56.25;100471.47;10226734;28;20064;-77
2023/09/08 20:55:04;;;;;;;10.30;7.00;;;;;;;23.31;56.62;100468.28;10229593;28;20146;-78
2023/09/08 21:00:10;;;;;;;9.00;7.28;;;;;;;23.27;56.95;100467.84;10227231;28;20055;-77
2023/09/08 21:05:13;;;;;;;11.10;6.80;;;;;;;23.21;57.09;100469.53;10227411;28;20498;-77
2023/09/08 21:10:16;;;;;;;11.10;7.47;;;;;;;23.17;57.22;100476.44;10228065;28;20051;-77
2023/09/08 21:15:20;;;;;;;9.80;7.60;;;;;;;23.08;57.21;100469.44;10226284;28;20490;-77
2023/09/08 21:20:23;;;;;;;11.95;7.75;;;;;;;22.99;57.82;100467.94;10245030;28;20051;-77
2023/09/08 21:25:26;;;;;;;8.05;7.25;;;;;;;22.91;58.20;100463.47;10246702;28;20054;-77
2023/09/08 21:30:30;;;;;;;8.82;7.40;;;;;;;22.81;58.10;100462.16;10234118;28;20047;-77
2023/09/08 21:35:33;;;;;;;11.65;8.90;;;;;;;22.78;58.50;100453.28;10227018;28;20450;-77
2023/09/08 21:40:38;;;;;;;10.85;8.35;;;;;;;22.46;58.84;100460.28;10229903;28;20047;-77
2023/09/08 21:45:48;;;;;;;11.65;7.88;;;;;;;22.39;59.26;100462.09;10227243;28;20163;-77
2023/09/08 21:50:51;;;;;;;8.05;7.35;;;;;;;22.35;59.17;100463.53;10220355;28;20073;-77
2023/09/08 21:55:54;;;;;;;11.68;8.63;;;;;;;22.20;59.71;100460.91;10225365;28;20055;-77
2023/09/08 22:00:58;;;;;;;11.48;8.48;;;;;;;22.13;59.78;100464.63;10227898;28;20089;-77
2023/09/08 22:06:02;;;;;;;14.18;8.90;;;;;;;22.04;59.71;100458.47;10229233;28;20141;-77
2023/09/08 22:11:06;;;;;;;15.68;8.43;;;;;;;21.62;60.95;100463.75;10224076;28;20426;-77
2023/09/08 22:16:10;;;;;;;10.68;8.25;;;;;;;21.72;60.87;100468.03;10229935;28;20185;-77
2023/09/08 22:21:13;;;;;;;15.35;8.25;;;;;;;21.74;61.00;100474.16;10237502;28;20539;-77
2023/09/08 22:26:17;;;;;;;10.57;7.97;;;;;;;21.79;60.48;100475.28;10237845;28;20051;-77
2023/09/08 22:31:21;;;;;;;12.32;8.85;;;;;;;21.69;60.96;100477.47;10226947;28;20039;-77
2023/09/08 22:36:24;;;;;;;9.88;8.18;;;;;;;21.44;61.68;100475.09;10226722;28;20141;-77
2023/09/08 22:41:27;;;;;;;10.43;8.57;;;;;;;21.15;62.37;100467.00;10229284;28;20047;-77
2023/09/08 22:46:31;;;;;;;10.45;7.55;;;;;;;21.11;62.14;100460.22;10230514;28;20434;-77
2023/09/08 22:51:34;;;;;;;8.70;7.70;;;;;;;21.04;62.53;100462.06;10226237;28;20051;-77
2023/09/08 22:56:37;;;;;;;12.05;8.45;;;;;;;20.83;62.87;100463.63;10236134;28;20058;-77
2023/09/08 23:01:41;;;;;;;9.95;8.13;;;;;;;20.87;62.78;100466.81;10228626;28;20047;-77
2023/09/08 23:06:44;;;;;;;10.10;8.50;;;;;;;20.76;62.93;100471.75;10225445;28;20043;-77
2023/09/08 23:11:47;;;;;;;11.70;8.38;;;;;;;20.59;63.71;100470.22;10226885;28;20490;-78